createdAt,value
2022-11-24T00:02:51.989Z,51.11
2022-11-24T00:07:56.688Z,50.97
2022-11-24T00:13:02.434Z,51.00
2022-11-24T00:18:06.145Z,50.90
2022-11-24T00:23:11.211Z,51.07
2022-11-24T00:28:14.916Z,50.86
2022-11-24T00:33:18.240Z,50.93
2022-11-24T00:38:21.538Z,51.05
2022-11-24T00:43:25.042Z,51.11
2022-11-24T00:48:28.697Z,51.42
2022-11-24T00:53:32.427Z,51.19
2022-11-24T00:58:39.391Z,51.39
2022-11-24T01:03:43.235Z,51.67
2022-11-24T01:08:47.364Z,51.51
2022-11-24T01:13:56.887Z,51.58
2022-11-24T01:19:01.467Z,51.84
2022-11-24T01:24:05.570Z,51.78
2022-11-24T01:29:11.586Z,51.63
2022-11-24T01:34:14.985Z,52.06
2022-11-24T01:39:18.437Z,52.08
2022-11-24T01:44:28.820Z,52.37
2022-11-24T01:49:41.408Z,52.97
2022-11-24T01:54:50.494Z,53.39
2022-11-24T02:00:02.767Z,53.76
2022-11-24T02:05:28.593Z,54.01
2022-11-24T02:10:32.067Z,54.26
2022-11-24T02:15:36.039Z,54.45
2022-11-24T02:20:39.555Z,54.83
2022-11-24T02:25:58.381Z,54.94
2022-11-24T02:31:02.687Z,55.05
2022-11-24T02:36:06.462Z,55.23
2022-11-24T02:41:14.386Z,55.55
2022-11-24T02:46:17.932Z,55.71
2022-11-24T02:51:21.357Z,55.96
2022-11-24T02:56:28.494Z,56.15
2022-11-24T03:01:32.071Z,56.21
2022-11-24T03:06:36.475Z,56.18
2022-11-24T03:11:39.859Z,56.43
2022-11-24T03:16:43.604Z,56.77
2022-11-24T03:21:46.970Z,56.87
2022-11-24T03:26:50.685Z,56.87
2022-11-24T03:31:54.520Z,57.32
2022-11-24T03:37:04.350Z,57.67
2022-11-24T03:42:07.622Z,57.75
2022-11-24T03:47:12.198Z,58.15
2022-11-24T03:52:15.508Z,58.19
2022-11-24T03:57:18.905Z,57.97
2022-11-24T04:02:22.474Z,57.92
2022-11-24T04:07:25.833Z,58.00
2022-11-24T04:12:29.242Z,58.55
2022-11-24T04:17:32.534Z,58.08
2022-11-24T04:22:35.936Z,58.22
2022-11-24T04:27:40.537Z,58.20
2022-11-24T04:32:44.236Z,58.06
2022-11-24T04:37:50.227Z,58.11
2022-11-24T04:42:54.988Z,58.32
2022-11-24T04:47:58.652Z,58.47
2022-11-24T04:53:03.610Z,58.78
2022-11-24T04:58:13.590Z,58.63
2022-11-24T05:03:18.245Z,58.81
2022-11-24T05:08:21.673Z,59.31
2022-11-24T05:13:24.980Z,59.33
2022-11-24T05:18:28.423Z,59.98
2022-11-24T05:23:31.867Z,60.30
2022-11-24T05:28:35.259Z,60.57
2022-11-24T05:33:39.959Z,60.56
2022-11-24T05:38:43.198Z,60.68
2022-11-24T05:43:46.765Z,60.83
2022-11-24T05:48:51.464Z,61.12
2022-11-24T05:53:55.698Z,61.45
2022-11-24T05:58:59.251Z,61.45
2022-11-24T06:04:02.808Z,61.00
2022-11-24T06:09:06.216Z,60.91
2022-11-24T06:14:11.472Z,60.88
2022-11-24T06:19:15.154Z,61.05
2022-11-24T06:24:18.662Z,61.10
2022-11-24T06:29:21.919Z,61.08
2022-11-24T06:34:25.297Z,60.84
2022-11-24T06:39:29.155Z,60.61
2022-11-24T06:44:37.122Z,60.79
2022-11-24T06:49:41.114Z,60.63
2022-11-24T06:54:44.498Z,60.44
2022-11-24T06:59:47.844Z,60.70
2022-11-24T07:04:54.956Z,60.69
2022-11-24T07:09:58.617Z,61.00
2022-11-24T07:15:02.445Z,60.56
2022-11-24T07:20:08.361Z,60.53
2022-11-24T07:25:11.681Z,60.45
2022-11-24T07:30:15.778Z,60.27
2022-11-24T07:35:19.214Z,60.06
2022-11-24T07:40:23.269Z,60.10
2022-11-24T07:45:26.775Z,59.93
2022-11-24T07:50:30.421Z,59.69
2022-11-24T07:55:33.752Z,60.08
2022-11-24T08:00:37.139Z,60.15
2022-11-24T08:06:00.710Z,60.31
2022-11-24T08:11:08.918Z,60.16
2022-11-24T08:16:18.233Z,60.36
2022-11-24T08:21:23.459Z,60.17
2022-11-24T08:26:31.152Z,59.65
2022-11-24T08:31:35.945Z,59.16
2022-11-24T08:36:39.398Z,59.13
2022-11-24T08:41:43.465Z,58.88
2022-11-24T08:46:46.867Z,58.71
2022-11-24T08:51:50.270Z,58.44
2022-11-24T08:56:53.661Z,57.98
2022-11-24T09:01:57.313Z,57.47
2022-11-24T09:07:01.110Z,57.31
2022-11-24T09:12:05.826Z,57.09
2022-11-24T09:17:12.397Z,57.18
2022-11-24T09:22:17.272Z,56.80
2022-11-24T09:27:20.613Z,56.64
2022-11-24T09:32:24.056Z,56.09
2022-11-24T09:37:32.435Z,55.79
2022-11-24T09:42:58.383Z,55.52
2022-11-24T09:48:21.790Z,55.09
2022-11-24T09:53:37.143Z,54.89
2022-11-24T09:59:07.494Z,55.20
2022-11-24T10:04:24.047Z,55.14
2022-11-24T10:09:44.768Z,55.40
2022-11-24T10:15:20.087Z,55.10
2022-11-24T10:20:41.800Z,55.08
2022-11-24T10:26:29.523Z,55.23
2022-11-24T10:31:39.680Z,55.47
2022-11-24T10:37:01.803Z,55.66
2022-11-24T10:42:33.956Z,56.15
2022-11-24T10:47:39.026Z,56.21
2022-11-24T10:52:47.554Z,56.26
2022-11-24T10:57:51.880Z,56.54
2022-11-24T11:03:21.360Z,56.32
2022-11-24T11:08:27.958Z,56.19
2022-11-24T11:13:31.855Z,56.57
2022-11-24T11:18:36.698Z,56.36
2022-11-24T11:23:41.044Z,55.30
2022-11-24T11:31:15.228Z,55.07
2022-11-24T11:34:29.856Z,55.18
2022-11-24T11:39:38.010Z,55.10
2022-11-24T11:44:53.128Z,55.33
2022-11-24T11:49:58.041Z,55.88
2022-11-24T11:55:46.548Z,55.70
2022-11-24T12:01:16.246Z,55.57
2022-11-24T12:06:48.521Z,55.30
2022-11-24T12:12:10.355Z,55.23
2022-11-24T12:17:31.875Z,55.12
2022-11-24T12:22:55.615Z,55.09
2022-11-24T12:28:30.714Z,55.19
2022-11-24T12:34:00.968Z,55.37
2022-11-24T12:39:34.472Z,55.12
2022-11-24T12:44:47.399Z,54.90
2022-11-24T12:50:12.360Z,54.72
2022-11-24T12:55:22.328Z,56.43
2022-11-24T13:00:28.809Z,57.53
2022-11-24T13:05:44.327Z,58.30
2022-11-24T13:10:55.886Z,58.48
2022-11-24T13:21:41.670Z,59.77
2022-11-24T13:26:54.357Z,60.38
2022-11-24T13:32:09.993Z,60.56
2022-11-24T13:37:28.899Z,61.13
2022-11-24T13:42:57.067Z,61.19
2022-11-24T13:48:02.003Z,61.45
2022-11-24T13:53:18.747Z,61.64
2022-11-24T13:58:29.255Z,62.11
2022-11-24T14:04:28.160Z,61.78
2022-11-24T14:09:35.683Z,61.49
2022-11-24T14:14:39.633Z,61.22
2022-11-24T14:19:45.644Z,61.32
2022-11-24T14:24:54.722Z,61.14
2022-11-24T14:30:10.362Z,61.17
2022-11-24T14:35:29.040Z,60.85
2022-11-24T14:40:41.628Z,61.20
2022-11-24T14:45:54.263Z,61.44
2022-11-24T14:51:20.159Z,61.38
2022-11-24T14:56:33.286Z,61.60
2022-11-24T15:01:36.942Z,62.11
2022-11-24T15:06:42.476Z,62.17
2022-11-24T15:11:46.269Z,62.21
2022-11-24T15:16:49.755Z,62.03
2022-11-24T15:21:53.181Z,62.19
2022-11-24T15:27:00.957Z,62.39
2022-11-24T15:32:14.396Z,62.39
2022-11-24T15:37:17.931Z,62.56
2022-11-24T15:42:21.896Z,62.62
2022-11-24T15:47:26.586Z,62.65
2022-11-24T15:52:30.900Z,62.38
2022-11-24T15:57:35.273Z,62.63
2022-11-24T16:02:38.676Z,62.38
2022-11-24T16:07:42.292Z,62.40
2022-11-24T16:12:45.674Z,62.18
2022-11-24T16:17:49.106Z,62.15
2022-11-24T16:22:52.417Z,61.68
2022-11-24T16:27:55.861Z,61.89
2022-11-24T16:33:05.560Z,61.68
2022-11-24T16:38:16.685Z,61.70
2022-11-24T16:43:20.402Z,61.71
2022-11-24T16:48:24.490Z,61.71
2022-11-24T16:53:27.974Z,61.80
2022-11-24T16:58:31.527Z,62.01
2022-11-24T17:03:35.658Z,62.27
2022-11-24T17:08:41.158Z,62.29
2022-11-24T17:13:46.801Z,62.27
2022-11-24T17:18:52.119Z,62.01
2022-11-24T17:23:59.488Z,62.16
2022-11-24T17:29:03.830Z,62.64
2022-11-24T17:34:12.233Z,62.92
2022-11-24T17:39:19.125Z,62.99
2022-11-24T17:44:30.609Z,62.88
2022-11-24T17:49:34.021Z,62.81
2022-11-24T17:54:46.239Z,62.83
2022-11-24T17:59:50.625Z,62.77
2022-11-24T18:04:55.292Z,62.62
2022-11-24T18:09:58.697Z,62.57
2022-11-24T18:15:04.836Z,62.72
2022-11-24T18:20:09.865Z,62.50
2022-11-24T18:25:13.429Z,62.34
2022-11-24T18:30:18.370Z,62.48
2022-11-24T18:35:25.247Z,62.85
2022-11-24T18:40:28.627Z,63.09
2022-11-24T18:45:32.446Z,63.61
2022-11-24T18:50:36.023Z,63.97
2022-11-24T18:55:39.448Z,64.57
2022-11-24T19:00:43.002Z,66.59
2022-11-24T19:05:46.778Z,68.25
2022-11-24T19:10:50.241Z,68.69
2022-11-24T19:15:53.547Z,69.05
2022-11-24T19:20:57.232Z,69.71
2022-11-24T19:26:04.925Z,70.00
2022-11-24T19:31:11.401Z,70.30
2022-11-24T19:36:20.881Z,70.40
2022-11-24T19:41:27.335Z,70.60
2022-11-24T19:46:31.163Z,70.82
2022-11-24T19:51:37.440Z,71.30
2022-11-24T19:56:41.425Z,71.61
2022-11-24T20:01:46.395Z,71.83
2022-11-24T20:06:49.935Z,72.42
2022-11-24T20:11:53.145Z,72.35
2022-11-24T20:16:57.204Z,72.52
2022-11-24T20:22:00.957Z,73.23
2022-11-24T20:27:04.554Z,73.30
2022-11-24T20:32:08.144Z,73.95
2022-11-24T20:37:11.616Z,74.21
2022-11-24T20:42:16.198Z,74.24
2022-11-24T20:47:19.713Z,74.82
2022-11-24T20:52:23.648Z,74.66
2022-11-24T20:57:27.034Z,75.15
2022-11-24T21:02:31.876Z,75.05
2022-11-24T21:07:38.746Z,75.69
2022-11-24T21:12:42.070Z,75.51
2022-11-24T21:17:45.392Z,76.19
2022-11-24T21:22:48.512Z,75.17
2022-11-24T21:27:52.792Z,75.75
2022-11-24T21:33:00.119Z,76.53
2022-11-24T21:38:04.114Z,76.84
2022-11-24T21:43:08.383Z,77.16
2022-11-24T21:48:11.727Z,77.37
2022-11-24T21:53:14.869Z,76.39
2022-11-24T21:58:17.886Z,76.10
2022-11-24T22:03:23.692Z,76.57
2022-11-24T22:08:27.682Z,76.39
2022-11-24T22:13:31.252Z,76.60
2022-11-24T22:18:36.684Z,77.07
2022-11-24T22:23:40.799Z,77.08
2022-11-24T22:28:45.366Z,77.38
2022-11-24T22:33:49.936Z,77.38
2022-11-24T22:39:01.187Z,77.50
2022-11-24T22:44:05.597Z,77.34
2022-11-24T22:49:10.331Z,77.47
2022-11-24T22:54:13.829Z,77.81
2022-11-24T22:59:17.222Z,77.64
2022-11-24T23:04:20.629Z,77.61
2022-11-24T23:09:25.412Z,77.43
2022-11-24T23:14:33.443Z,77.42
2022-11-24T23:19:37.149Z,77.00
2022-11-24T23:24:40.626Z,77.02
2022-11-24T23:29:43.939Z,76.48
2022-11-24T23:34:47.729Z,76.45
2022-11-24T23:39:51.036Z,76.55
2022-11-24T23:44:54.138Z,76.18
2022-11-24T23:49:57.142Z,75.26
2022-11-24T23:55:03.378Z,74.95
